sensor_id;sensor_type;location;lat;lon;timestamp;pressure;altitude;pressure_sealevel;temperature;humidity
42771;BME280;28426;42.872;25.314;2023-02-25T00:02:20;96293.25;;;5.56;75.46
42771;BME280;28426;42.872;25.314;2023-02-25T00:04:53;96302.88;;;5.49;78.54
42771;BME280;28426;42.872;25.314;2023-02-25T00:07:26;96298.13;;;5.44;78.18
42771;BME280;28426;42.872;25.314;2023-02-25T00:09:58;96288.06;;;5.31;77.09
42771;BME280;28426;42.872;25.314;2023-02-25T00:12:29;96290.97;;;5.13;76.73
42771;BME280;28426;42.872;25.314;2023-02-25T00:15:00;96297.44;;;5.02;80.41
42771;BME280;28426;42.872;25.314;2023-02-25T00:17:31;96294.97;;;5.01;79.82
42771;BME280;28426;42.872;25.314;2023-02-25T00:20:06;96290.69;;;4.91;78.72
42771;BME280;28426;42.872;25.314;2023-02-25T00:22:39;96297.78;;;4.91;81.21
42771;BME280;28426;42.872;25.314;2023-02-25T00:25:10;96293.19;;;4.93;80.29
42771;BME280;28426;42.872;25.314;2023-02-25T00:27:41;96294.66;;;4.95;80.48
42771;BME280;28426;42.872;25.314;2023-02-25T00:30:12;96288.53;;;4.95;80.23
42771;BME280;28426;42.872;25.314;2023-02-25T00:32:43;96281.63;;;4.86;79.22
42771;BME280;28426;42.872;25.314;2023-02-25T00:35:16;96277.03;;;4.79;80.53
42771;BME280;28426;42.872;25.314;2023-02-25T00:37:47;96283.94;;;4.80;80.77
42771;BME280;28426;42.872;25.314;2023-02-25T00:40:17;96256.38;;;4.66;79.85
42771;BME280;28426;42.872;25.314;2023-02-25T00:42:48;96271.59;;;4.64;78.59
42771;BME280;28426;42.872;25.314;2023-02-25T00:45:20;96269.66;;;4.41;78.56
42771;BME280;28426;42.872;25.314;2023-02-25T00:47:51;96265.84;;;4.27;84.40
42771;BME280;28426;42.872;25.314;2023-02-25T00:50:24;96257.59;;;4.22;82.92
42771;BME280;28426;42.872;25.314;2023-02-25T00:52:55;96254.31;;;4.20;83.97
42771;BME280;28426;42.872;25.314;2023-02-25T00:55:25;96253.97;;;4.23;83.16
42771;BME280;28426;42.872;25.314;2023-02-25T00:58:00;96253.66;;;4.18;81.55
42771;BME280;28426;42.872;25.314;2023-02-25T01:00:30;96246.06;;;4.07;80.58
42771;BME280;28426;42.872;25.314;2023-02-25T01:03:17;96244.06;;;3.92;85.19
42771;BME280;28426;42.872;25.314;2023-02-25T01:05:50;96233.19;;;3.95;83.90
42771;BME280;28426;42.872;25.314;2023-02-25T01:08:21;96227.25;;;3.93;82.77
42771;BME280;28426;42.872;25.314;2023-02-25T01:10:52;96235.50;;;3.82;81.48
42771;BME280;28426;42.872;25.314;2023-02-25T01:13:22;96231.50;;;3.69;81.94
42771;BME280;28426;42.872;25.314;2023-02-25T01:15:53;96224.41;;;3.61;87.71
42771;BME280;28426;42.872;25.314;2023-02-25T01:18:23;96223.28;;;3.72;87.58
42771;BME280;28426;42.872;25.314;2023-02-25T01:20:57;96222.81;;;3.77;87.65
42771;BME280;28426;42.872;25.314;2023-02-25T01:23:27;96218.34;;;3.86;85.56
42771;BME280;28426;42.872;25.314;2023-02-25T01:25:59;96199.84;;;3.77;82.44
42771;BME280;28426;42.872;25.314;2023-02-25T01:28:32;96199.84;;;3.61;81.99
42771;BME280;28426;42.872;25.314;2023-02-25T01:31:03;96199.00;;;3.44;82.34
42771;BME280;28426;42.872;25.314;2023-02-25T01:33:34;96206.22;;;3.25;83.90
42771;BME280;28426;42.872;25.314;2023-02-25T01:36:08;96199.78;;;3.27;88.09
42771;BME280;28426;42.872;25.314;2023-02-25T01:38:38;96203.13;;;3.30;86.25
42771;BME280;28426;42.872;25.314;2023-02-25T01:41:09;96202.31;;;3.37;87.47
42771;BME280;28426;42.872;25.314;2023-02-25T01:43:40;96200.66;;;3.36;85.43
42771;BME280;28426;42.872;25.314;2023-02-25T01:46:10;96199.16;;;3.25;83.90
42771;BME280;28426;42.872;25.314;2023-02-25T01:48:43;96202.75;;;3.24;87.57
42771;BME280;28426;42.872;25.314;2023-02-25T01:51:16;96188.59;;;3.25;86.22
42771;BME280;28426;42.872;25.314;2023-02-25T01:53:49;96195.50;;;3.18;84.30
42771;BME280;28426;42.872;25.314;2023-02-25T01:56:22;96199.41;;;3.06;83.69
42771;BME280;28426;42.872;25.314;2023-02-25T01:58:54;96186.50;;;2.86;83.70
42771;BME280;28426;42.872;25.314;2023-02-25T02:01:31;96191.66;;;2.96;87.78
42771;BME280;28426;42.872;25.314;2023-02-25T02:04:04;96189.97;;;2.95;86.61
42771;BME280;28426;42.872;25.314;2023-02-25T02:06:41;96175.13;;;2.85;85.21
42771;BME280;28426;42.872;25.314;2023-02-25T02:09:17;96185.66;;;2.85;88.44
42771;BME280;28426;42.872;25.314;2023-02-25T02:11:50;96183.22;;;2.92;87.98
42771;BME280;28426;42.872;25.314;2023-02-25T02:14:23;96179.41;;;2.86;85.92
42771;BME280;28426;42.872;25.314;2023-02-25T02:17:17;96179.88;;;2.73;84.62
42771;BME280;28426;42.872;25.314;2023-02-25T02:20:03;96184.28;;;2.65;89.35
42771;BME280;28426;42.872;25.314;2023-02-25T02:22:50;96177.88;;;2.67;88.87
42771;BME280;28426;42.872;25.314;2023-02-25T02:25:43;96176.53;;;2.63;87.46
42771;BME280;28426;42.872;25.314;2023-02-25T02:31:31;96181.09;;;2.53;89.04
42771;BME280;28426;42.872;25.314;2023-02-25T02:34:14;96184.91;;;2.58;89.57
42771;BME280;28426;42.872;25.314;2023-02-25T02:36:54;96179.31;;;2.61;90.73
42771;BME280;28426;42.872;25.314;2023-02-25T02:39:37;96193.34;;;2.70;89.73
42771;BME280;28426;42.872;25.314;2023-02-25T02:42:18;96179.38;;;2.70;87.22
42771;BME280;28426;42.872;25.314;2023-02-25T02:45:00;96182.09;;;2.60;85.63
42771;BME280;28426;42.872;25.314;2023-02-25T02:47:37;96172.16;;;2.45;85.39
42771;BME280;28426;42.872;25.314;2023-02-25T02:50:12;96177.38;;;2.37;91.07
42771;BME280;28426;42.872;25.314;2023-02-25T02:52:48;96172.31;;;2.44;90.26
42771;BME280;28426;42.872;25.314;2023-02-25T02:55:22;96172.66;;;2.49;90.61
42771;BME280;28426;42.872;25.314;2023-02-25T02:57:58;96169.94;;;2.59;89.05
42771;BME280;28426;42.872;25.314;2023-02-25T03:00:35;96164.97;;;2.56;87.25
42771;BME280;28426;42.872;25.314;2023-02-25T03:03:13;96164.13;;;2.47;85.96
42771;BME280;28426;42.872;25.314;2023-02-25T03:05:48;96177.69;;;2.34;85.83
42771;BME280;28426;42.872;25.314;2023-02-25T03:08:23;96165.63;;;2.23;90.32
42771;BME280;28426;42.872;25.314;2023-02-25T03:10:56;96171.28;;;2.28;91.16
42771;BME280;28426;42.872;25.314;2023-02-25T03:13:27;96161.88;;;2.26;88.28
42771;BME280;28426;42.872;25.314;2023-02-25T03:15:59;96162.47;;;2.19;87.20
42771;BME280;28426;42.872;25.314;2023-02-25T03:18:36;96162.13;;;2.14;90.89
42771;BME280;28426;42.872;25.314;2023-02-25T03:21:12;96167.78;;;2.28;91.57
42771;BME280;28426;42.872;25.314;2023-02-25T03:23:45;96163.25;;;2.38;91.11
42771;BME280;28426;42.872;25.314;2023-02-25T03:26:22;96152.28;;;2.51;90.48
42771;BME280;28426;42.872;25.314;2023-02-25T03:28:59;96150.19;;;2.63;88.87
42771;BME280;28426;42.872;25.314;2023-02-25T03:31:35;96143.97;;;2.72;87.61
42771;BME280;28426;42.872;25.314;2023-02-25T03:34:16;96150.88;;;2.73;86.00
42771;BME280;28426;42.872;25.314;2023-02-25T03:36:50;96139.00;;;2.69;86.61
42771;BME280;28426;42.872;25.314;2023-02-25T03:39:27;96141.03;;;2.84;91.30
42771;BME280;28426;42.872;25.314;2023-02-25T03:42:00;96142.22;;;2.98;88.35
42771;BME280;28426;42.872;25.314;2023-02-25T03:44:36;96132.69;;;3.13;88.70
42771;BME280;28426;42.872;25.314;2023-02-25T03:47:10;96135.50;;;3.20;86.52
42771;BME280;28426;42.872;25.314;2023-02-25T03:49:51;96129.91;;;3.15;84.33
42771;BME280;28426;42.872;25.314;2023-02-25T03:52:26;96130.22;;;3.04;84.14
42771;BME280;28426;42.872;25.314;2023-02-25T03:55:02;96128.22;;;2.89;85.60
42771;BME280;28426;42.872;25.314;2023-02-25T03:57:37;96128.56;;;2.94;88.69
42771;BME280;28426;42.872;25.314;2023-02-25T04:00:14;96130.22;;;3.04;88.51
42771;BME280;28426;42.872;25.314;2023-02-25T04:02:46;96126.94;;;3.18;88.15
42771;BME280;28426;42.872;25.314;2023-02-25T04:05:20;96123.50;;;3.26;85.89
42771;BME280;28426;42.872;25.314;2023-02-25T04:07:51;96121.84;;;3.33;87.76
42771;BME280;28426;42.872;25.314;2023-02-25T04:10:23;96113.28;;;3.39;86.20
42771;BME280;28426;42.872;25.314;2023-02-25T04:12:55;96110.81;;;3.38;84.55
42771;BME280;28426;42.872;25.314;2023-02-25T04:15:25;96106.50;;;3.29;83.32
42771;BME280;28426;42.872;25.314;2023-02-25T04:17:56;96100.56;;;3.10;81.93
42771;BME280;28426;42.872;25.314;2023-02-25T04:20:29;96098.56;;;2.87;83.60
42771;BME280;28426;42.872;25.314;2023-02-25T04:23:00;96096.91;;;2.86;87.05
42771;BME280;28426;42.872;25.314;2023-02-25T04:25:31;96090.97;;;2.84;86.52
42771;BME280;28426;42.872;25.314;2023-02-25T04:28:04;96097.09;;;2.93;87.64
42771;BME280;28426;42.872;25.314;2023-02-25T04:30:34;96086.06;;;3.06;86.83
42771;BME280;28426;42.872;25.314;2023-02-25T04:33:05;96087.06;;;3.13;85.02
42771;BME280;28426;42.872;25.314;2023-02-25T04:35:38;96087.06;;;3.13;83.84
42771;BME280;28426;42.872;25.314;2023-02-25T04:38:09;96087.72;;;3.07;83.90
42771;BME280;28426;42.872;25.314;2023-02-25T04:40:40;96088.41;;;3.17;87.89
42771;BME280;28426;42.872;25.314;2023-02-25T04:43:11;96094.00;;;3.22;85.04
42771;BME280;28426;42.872;25.314;2023-02-25T04:45:41;96097.63;;;3.30;85.82
42771;BME280;28426;42.872;25.314;2023-02-25T04:48:13;96089.06;;;3.27;82.95
42771;BME280;28426;42.872;25.314;2023-02-25T04:50:53;96086.06;;;3.06;81.47
42771;BME280;28426;42.872;25.314;2023-02-25T04:53:25;96090.63;;;2.79;81.13
42771;BME280;28426;42.872;25.314;2023-02-25T04:55:56;96088.59;;;2.56;83.18
42771;BME280;28426;42.872;25.314;2023-02-25T04:58:26;96084.50;;;2.61;88.27
42771;BME280;28426;42.872;25.314;2023-02-25T05:00:58;96083.50;;;2.63;85.90
42771;BME280;28426;42.872;25.314;2023-02-25T05:03:29;96079.91;;;2.72;86.86
42771;BME280;28426;42.872;25.314;2023-02-25T05:06:03;96064.94;;;2.72;86.42
42771;BME280;28426;42.872;25.314;2023-02-25T05:08:35;96082.09;;;2.85;84.43
42771;BME280;28426;42.872;25.314;2023-02-25T05:11:06;96071.53;;;2.77;82.65
42771;BME280;28426;42.872;25.314;2023-02-25T05:13:37;96079.53;;;2.58;82.90
42771;BME280;28426;42.872;25.314;2023-02-25T05:16:10;96081.84;;;2.53;87.30
42771;BME280;28426;42.872;25.314;2023-02-25T05:18:44;96080.34;;;2.51;85.63
42771;BME280;28426;42.872;25.314;2023-02-25T05:21:19;96084.31;;;2.55;86.63
42771;BME280;28426;42.872;25.314;2023-02-25T05:23:51;96080.06;;;2.62;86.32
42771;BME280;28426;42.872;25.314;2023-02-25T05:26:23;96078.91;;;2.56;84.02
42771;BME280;28426;42.872;25.314;2023-02-25T05:28:55;96080.31;;;2.42;83.16
42771;BME280;28426;42.872;25.314;2023-02-25T05:31:26;96080.78;;;2.29;84.46
42771;BME280;28426;42.872;25.314;2023-02-25T05:33:57;96089.84;;;2.43;89.21
42771;BME280;28426;42.872;25.314;2023-02-25T05:36:30;96086.28;;;2.53;87.02
42771;BME280;28426;42.872;25.314;2023-02-25T05:39:00;96087.28;;;2.60;87.27
42771;BME280;28426;42.872;25.314;2023-02-25T05:41:32;96084.03;;;2.74;87.63
42771;BME280;28426;42.872;25.314;2023-02-25T05:44:03;96091.97;;;2.83;85.31
42771;BME280;28426;42.872;25.314;2023-02-25T05:46:34;96088.31;;;2.84;84.02
42771;BME280;28426;42.872;25.314;2023-02-25T05:49:04;96096.41;;;2.74;82.60
42771;BME280;28426;42.872;25.314;2023-02-25T05:51:38;96086.31;;;2.69;87.25
42771;BME280;28426;42.872;25.314;2023-02-25T05:54:08;96085.69;;;2.76;86.69
42771;BME280;28426;42.872;25.314;2023-02-25T05:56:39;96091.63;;;2.78;84.62
42771;BME280;28426;42.872;25.314;2023-02-25T05:59:11;96090.97;;;2.76;83.70
42771;BME280;28426;42.872;25.314;2023-02-25T06:01:44;96087.00;;;2.80;87.87
42771;BME280;28426;42.872;25.314;2023-02-25T06:04:15;96092.00;;;2.99;87.76
42771;BME280;28426;42.872;25.314;2023-02-25T06:06:48;96085.75;;;3.34;87.60
42771;BME280;28426;42.872;25.314;2023-02-25T06:09:20;96083.13;;;3.67;85.85
42771;BME280;28426;42.872;25.314;2023-02-25T06:11:50;96088.31;;;4.09;84.63
42771;BME280;28426;42.872;25.314;2023-02-25T06:14:21;96072.88;;;4.37;82.14
42771;BME280;28426;42.872;25.314;2023-02-25T06:16:52;96075.25;;;4.55;79.80
42771;BME280;28426;42.872;25.314;2023-02-25T06:19:24;96073.88;;;4.68;78.35
42771;BME280;28426;42.872;25.314;2023-02-25T06:21:58;96069.22;;;4.78;77.12
42771;BME280;28426;42.872;25.314;2023-02-25T06:24:29;96069.94;;;4.95;80.60
42771;BME280;28426;42.872;25.314;2023-02-25T06:26:59;96068.06;;;5.28;78.54
42771;BME280;28426;42.872;25.314;2023-02-25T06:29:30;96068.03;;;5.66;78.64
42771;BME280;28426;42.872;25.314;2023-02-25T06:32:00;96071.19;;;6.00;75.96
42771;BME280;28426;42.872;25.314;2023-02-25T06:34:32;96058.44;;;6.34;75.69
42771;BME280;28426;42.872;25.314;2023-02-25T06:37:06;96065.56;;;6.63;72.88
42771;BME280;28426;42.872;25.314;2023-02-25T06:39:37;96069.56;;;6.96;73.55
42771;BME280;28426;42.872;25.314;2023-02-25T06:42:09;96063.31;;;7.26;70.29
42771;BME280;28426;42.872;25.314;2023-02-25T06:44:40;96060.16;;;7.59;71.09
42771;BME280;28426;42.872;25.314;2023-02-25T06:47:11;96065.91;;;7.91;68.21
42771;BME280;28426;42.872;25.314;2023-02-25T06:49:41;96054.81;;;8.16;65.67
42771;BME280;28426;42.872;25.314;2023-02-25T06:52:15;96072.09;;;8.34;67.32
42771;BME280;28426;42.872;25.314;2023-02-25T06:54:45;96071.22;;;8.55;65.83
42771;BME280;28426;42.872;25.314;2023-02-25T06:57:16;96070.44;;;8.68;63.96
42771;BME280;28426;42.872;25.314;2023-02-25T06:59:47;96066.81;;;8.89;65.90
42771;BME280;28426;42.872;25.314;2023-02-25T07:02:19;96059.53;;;9.19;63.33
42771;BME280;28426;42.872;25.314;2023-02-25T07:04:52;96066.53;;;9.53;63.24
42771;BME280;28426;42.872;25.314;2023-02-25T07:07:25;96049.31;;;9.90;59.25
42771;BME280;28426;42.872;25.314;2023-02-25T07:09:56;96047.63;;;10.23;61.25
42771;BME280;28426;42.872;25.314;2023-02-25T07:12:26;96041.78;;;10.59;57.25
42771;BME280;28426;42.872;25.314;2023-02-25T07:14:58;96042.44;;;10.94;57.64
42771;BME280;28426;42.872;25.314;2023-02-25T07:17:29;96038.97;;;11.25;55.40
42771;BME280;28426;42.872;25.314;2023-02-25T07:20:00;96027.28;;;11.52;56.39
42771;BME280;28426;42.872;25.314;2023-02-25T07:22:33;96028.69;;;11.80;52.38
42771;BME280;28426;42.872;25.314;2023-02-25T07:25:06;96013.34;;;11.94;54.16
42771;BME280;28426;42.872;25.314;2023-02-25T07:27:39;96016.00;;;12.20;50.36
42771;BME280;28426;42.872;25.314;2023-02-25T07:30:12;96014.50;;;12.42;51.04
42771;BME280;28426;42.872;25.314;2023-02-25T07:32:43;96018.34;;;12.65;48.48
42771;BME280;28426;42.872;25.314;2023-02-25T07:35:14;96004.50;;;12.87;50.53
42771;BME280;28426;42.872;25.314;2023-02-25T07:37:48;95998.13;;;13.00;45.77
42771;BME280;28426;42.872;25.314;2023-02-25T07:40:19;96002.00;;;13.16;47.45
42771;BME280;28426;42.872;25.314;2023-02-25T07:42:49;95999.00;;;13.25;44.56
42771;BME280;28426;42.872;25.314;2023-02-25T07:45:21;96004.97;;;13.39;46.35
42771;BME280;28426;42.872;25.314;2023-02-25T07:47:52;95992.09;;;13.47;44.08
42771;BME280;28426;42.872;25.314;2023-02-25T07:50:23;95997.81;;;13.75;45.73
42771;BME280;28426;42.872;25.314;2023-02-25T07:52:56;96012.19;;;13.93;42.03
42771;BME280;28426;42.872;25.314;2023-02-25T07:55:27;95995.22;;;14.16;44.72
42771;BME280;28426;42.872;25.314;2023-02-25T07:57:57;95985.75;;;14.25;42.10
42771;BME280;28426;42.872;25.314;2023-02-25T08:00:28;95988.78;;;14.41;42.48
42771;BME280;28426;42.872;25.314;2023-02-25T08:02:59;95981.56;;;14.42;41.38
42771;BME280;28426;42.872;25.314;2023-02-25T08:05:32;95966.34;;;14.47;42.55
42771;BME280;28426;42.872;25.314;2023-02-25T08:08:05;95966.78;;;14.56;40.59
42771;BME280;28426;42.872;25.314;2023-02-25T08:10:36;95972.94;;;14.69;41.20
42771;BME280;28426;42.872;25.314;2023-02-25T08:13:07;95973.19;;;14.67;39.91
42771;BME280;28426;42.872;25.314;2023-02-25T08:15:39;95964.88;;;14.81;39.50
42771;BME280;28426;42.872;25.314;2023-02-25T08:18:10;95981.53;;;14.83;39.16
42771;BME280;28426;42.872;25.314;2023-02-25T08:20:44;95978.00;;;14.94;38.63
42771;BME280;28426;42.872;25.314;2023-02-25T08:23:18;95967.16;;;14.89;38.70
42771;BME280;28426;42.872;25.314;2023-02-25T08:25:52;95963.59;;;15.00;38.59
42771;BME280;28426;42.872;25.314;2023-02-25T08:28:24;95964.06;;;14.97;38.60
42771;BME280;28426;42.872;25.314;2023-02-25T08:31:02;95960.53;;;15.09;38.02
42771;BME280;28426;42.872;25.314;2023-02-25T08:33:33;95961.91;;;15.11;38.50
42771;BME280;28426;42.872;25.314;2023-02-25T08:36:08;95963.47;;;15.24;38.24
42771;BME280;28426;42.872;25.314;2023-02-25T08:38:42;95960.06;;;15.29;38.61
42771;BME280;28426;42.872;25.314;2023-02-25T08:41:12;95963.66;;;15.35;37.22
42771;BME280;28426;42.872;25.314;2023-02-25T08:43:43;95967.22;;;15.23;37.58
42771;BME280;28426;42.872;25.314;2023-02-25T08:46:13;95969.50;;;15.14;37.66
42771;BME280;28426;42.872;25.314;2023-02-25T08:48:48;95967.34;;;14.99;38.40
42771;BME280;28426;42.872;25.314;2023-02-25T08:51:20;95967.81;;;14.96;38.09
42771;BME280;28426;42.872;25.314;2023-02-25T08:53:55;95963.41;;;14.90;38.89
42771;BME280;28426;42.872;25.314;2023-02-25T08:56:26;95958.75;;;14.85;37.87
42771;BME280;28426;42.872;25.314;2023-02-25T08:58:57;95944.19;;;14.81;38.69
42771;BME280;28426;42.872;25.314;2023-02-25T09:01:28;95949.00;;;14.79;38.36
42771;BME280;28426;42.872;25.314;2023-02-25T09:04:12;95937.78;;;14.70;39.52
42771;BME280;28426;42.872;25.314;2023-02-25T09:06:44;95938.28;;;14.67;38.60
42771;BME280;28426;42.872;25.314;2023-02-25T09:09:18;95942.69;;;14.73;39.96
42771;BME280;28426;42.872;25.314;2023-02-25T09:11:49;95934.75;;;14.78;38.98
42771;BME280;28426;42.872;25.314;2023-02-25T09:14:20;95931.34;;;14.83;39.80
42771;BME280;28426;42.872;25.314;2023-02-25T09:16:51;95940.03;;;14.90;38.68
42771;BME280;28426;42.872;25.314;2023-02-25T09:19:22;95934.44;;;14.92;39.39
42771;BME280;28426;42.872;25.314;2023-02-25T09:21:53;95914.88;;;14.80;38.41
42771;BME280;28426;42.872;25.314;2023-02-25T09:24:26;95934.81;;;14.84;39.19
42771;BME280;28426;42.872;25.314;2023-02-25T09:26:56;95929.25;;;14.73;38.39
42771;BME280;28426;42.872;25.314;2023-02-25T09:29:27;95930.06;;;14.74;39.42
42771;BME280;28426;42.872;25.314;2023-02-25T09:31:59;95927.50;;;14.79;38.67
42771;BME280;28426;42.872;25.314;2023-02-25T09:34:30;95924.13;;;14.72;38.64
42771;BME280;28426;42.872;25.314;2023-02-25T09:37:03;95926.13;;;14.76;38.74
42771;BME280;28426;42.872;25.314;2023-02-25T09:39:38;95930.66;;;14.76;38.73
42771;BME280;28426;42.872;25.314;2023-02-25T09:42:12;95924.34;;;14.82;38.18
42771;BME280;28426;42.872;25.314;2023-02-25T09:44:46;95916.63;;;14.86;38.80
42771;BME280;28426;42.872;25.314;2023-02-25T09:47:21;95921.59;;;14.94;38.07
42771;BME280;28426;42.872;25.314;2023-02-25T09:49:56;95909.03;;;15.00;38.59
42771;BME280;28426;42.872;25.314;2023-02-25T09:52:31;95894.41;;;15.08;37.62
42771;BME280;28426;42.872;25.314;2023-02-25T09:55:15;95891.34;;;15.16;37.91
42771;BME280;28426;42.872;25.314;2023-02-25T09:57:55;95887.19;;;15.25;36.79
42771;BME280;28426;42.872;25.314;2023-02-25T10:00:27;95879.44;;;15.29;37.70
42771;BME280;28426;42.872;25.314;2023-02-25T10:03:01;95879.13;;;15.25;36.77
42771;BME280;28426;42.872;25.314;2023-02-25T10:05:41;95865.09;;;15.23;37.52
42771;BME280;28426;42.872;25.314;2023-02-25T10:08:17;95875.91;;;15.28;37.62
42771;BME280;28426;42.872;25.314;2023-02-25T10:10:58;95871.78;;;15.21;36.11
42771;BME280;28426;42.872;25.314;2023-02-25T10:13:40;95853.78;;;15.21;36.84
42771;BME280;28426;42.872;25.314;2023-02-25T10:16:29;95851.75;;;15.11;36.35
42771;BME280;28426;42.872;25.314;2023-02-25T10:19:18;95855.34;;;15.17;36.16
42771;BME280;28426;42.872;25.314;2023-02-25T10:21:56;95859.09;;;15.16;35.53
42771;BME280;28426;42.872;25.314;2023-02-25T10:24:31;95851.16;;;15.26;35.94
42771;BME280;28426;42.872;25.314;2023-02-25T10:27:17;95853.19;;;15.36;35.78
42771;BME280;28426;42.872;25.314;2023-02-25T10:29:51;95842.41;;;15.53;35.56
42771;BME280;28426;42.872;25.314;2023-02-25T10:32:25;95840.75;;;15.69;35.94
42771;BME280;28426;42.872;25.314;2023-02-25T10:34:59;95829.66;;;15.88;34.42
42771;BME280;28426;42.872;25.314;2023-02-25T10:37:32;95816.41;;;16.04;34.83
42771;BME280;28426;42.872;25.314;2023-02-25T10:40:05;95806.31;;;16.16;33.16
42771;BME280;28426;42.872;25.314;2023-02-25T10:42:43;95806.69;;;16.25;33.75
42771;BME280;28426;42.872;25.314;2023-02-25T10:45:21;95785.50;;;16.34;32.76
42771;BME280;28426;42.872;25.314;2023-02-25T10:47:57;95788.00;;;16.41;33.16
42771;BME280;28426;42.872;25.314;2023-02-25T10:50:33;95776.81;;;16.54;32.82
42771;BME280;28426;42.872;25.314;2023-02-25T10:53:14;95766.81;;;16.50;31.51
42771;BME280;28426;42.872;25.314;2023-02-25T10:55:47;95770.31;;;16.50;31.55
42771;BME280;28426;42.872;25.314;2023-02-25T10:58:27;95763.75;;;16.41;31.58
42771;BME280;28426;42.872;25.314;2023-02-25T11:01:05;95776.09;;;16.37;32.57
42771;BME280;28426;42.872;25.314;2023-02-25T11:03:43;95785.41;;;16.24;32.97
42771;BME280;28426;42.872;25.314;2023-02-25T11:06:22;95776.47;;;16.18;33.52
42771;BME280;28426;42.872;25.314;2023-02-25T11:08:55;95773.44;;;16.09;33.98
42771;BME280;28426;42.872;25.314;2023-02-25T11:11:27;95776.06;;;16.04;33.68
42771;BME280;28426;42.872;25.314;2023-02-25T11:14:03;95760.31;;;15.90;34.43
42771;BME280;28426;42.872;25.314;2023-02-25T11:16:36;95763.19;;;15.84;34.22
42771;BME280;28426;42.872;25.314;2023-02-25T11:19:12;95777.06;;;15.75;34.53
42771;BME280;28426;42.872;25.314;2023-02-25T11:21:45;95781.34;;;15.71;35.03
42771;BME280;28426;42.872;25.314;2023-02-25T11:24:21;95778.59;;;15.66;35.60
42771;BME280;28426;42.872;25.314;2023-02-25T11:26:59;95770.72;;;15.59;35.48
42771;BME280;28426;42.872;25.314;2023-02-25T11:29:35;95775.75;;;15.55;35.95
42771;BME280;28426;42.872;25.314;2023-02-25T11:32:09;95747.94;;;15.45;35.81
42771;BME280;28426;42.872;25.314;2023-02-25T11:34:46;95728.56;;;15.42;36.75
42771;BME280;28426;42.872;25.314;2023-02-25T11:37:35;95725.47;;;15.34;36.21
42771;BME280;28426;42.872;25.314;2023-02-25T11:40:25;95728.44;;;15.32;36.69
42771;BME280;28426;42.872;25.314;2023-02-25T11:43:01;95735.88;;;15.25;36.42
42771;BME280;28426;42.872;25.314;2023-02-25T11:45:37;95735.13;;;15.29;36.48
42771;BME280;28426;42.872;25.314;2023-02-25T11:48:16;95733.47;;;15.28;35.92
42771;BME280;28426;42.872;25.314;2023-02-25T11:50:55;95716.56;;;15.28;35.37
42771;BME280;28426;42.872;25.314;2023-02-25T11:53:46;95721.22;;;15.38;35.90
42771;BME280;28426;42.872;25.314;2023-02-25T11:56:24;95722.94;;;15.44;35.21
42771;BME280;28426;42.872;25.314;2023-02-25T11:59:05;95731.31;;;15.48;35.31
42771;BME280;28426;42.872;25.314;2023-02-25T12:01:53;95724.06;;;15.48;35.47
42771;BME280;28426;42.872;25.314;2023-02-25T12:04:42;95725.97;;;15.53;35.65
42771;BME280;28426;42.872;25.314;2023-02-25T12:07:37;95732.44;;;15.52;35.43
42771;BME280;28426;42.872;25.314;2023-02-25T12:11:11;95732.78;;;15.61;35.29
42771;BME280;28426;42.872;25.314;2023-02-25T12:14:22;95740.38;;;15.64;35.53
42771;BME280;28426;42.872;25.314;2023-02-25T12:26:40;95757.13;;;15.71;34.21
42771;BME280;28426;42.872;25.314;2023-02-25T12:29:28;95746.91;;;15.73;35.18
42771;BME280;28426;42.872;25.314;2023-02-25T12:32:20;95753.38;;;15.72;34.54
42771;BME280;28426;42.872;25.314;2023-02-25T12:38:24;95755.81;;;15.74;34.63
42771;BME280;28426;42.872;25.314;2023-02-25T12:41:18;95762.50;;;15.71;34.44
42771;BME280;28426;42.872;25.314;2023-02-25T12:43:58;95757.91;;;15.72;35.17
42771;BME280;28426;42.872;25.314;2023-02-25T12:46:43;95751.13;;;15.64;34.91
42771;BME280;28426;42.872;25.314;2023-02-25T12:49:44;95760.56;;;15.66;35.07
42771;BME280;28426;42.872;25.314;2023-02-25T12:52:36;95751.31;;;15.57;35.07
42771;BME280;28426;42.872;25.314;2023-02-25T12:55:35;95747.25;;;15.54;35.36
42771;BME280;28426;42.872;25.314;2023-02-25T12:58:21;95759.50;;;15.45;35.92
42771;BME280;28426;42.872;25.314;2023-02-25T13:01:09;95757.25;;;15.37;36.13
42771;BME280;28426;42.872;25.314;2023-02-25T13:04:13;95752.88;;;15.30;36.81
42771;BME280;28426;42.872;25.314;2023-02-25T13:10:24;95733.03;;;15.14;37.28
42771;BME280;28426;42.872;25.314;2023-02-25T13:13:13;95732.09;;;15.03;37.80
42771;BME280;28426;42.872;25.314;2023-02-25T13:15:56;95732.03;;;14.98;37.89
42771;BME280;28426;42.872;25.314;2023-02-25T13:18:39;95730.06;;;14.94;37.93
42771;BME280;28426;42.872;25.314;2023-02-25T13:21:33;95725.13;;;14.85;37.85
42771;BME280;28426;42.872;25.314;2023-02-25T13:24:16;95726.25;;;14.89;38.62
42771;BME280;28426;42.872;25.314;2023-02-25T13:27:37;95724.31;;;14.85;37.90
42771;BME280;28426;42.872;25.314;2023-02-25T13:30:34;95711.69;;;14.85;38.19
42771;BME280;28426;42.872;25.314;2023-02-25T13:33:29;95716.50;;;14.83;38.61
42771;BME280;28426;42.872;25.314;2023-02-25T13:36:22;95706.16;;;14.75;38.05
42771;BME280;28426;42.872;25.314;2023-02-25T13:39:07;95707.38;;;14.84;38.61
42771;BME280;28426;42.872;25.314;2023-02-25T13:42:02;95698.50;;;14.84;37.68
42771;BME280;28426;42.872;25.314;2023-02-25T13:45:00;95712.56;;;14.91;37.91
42771;BME280;28426;42.872;25.314;2023-02-25T13:47:55;95695.97;;;14.94;38.26
42771;BME280;28426;42.872;25.314;2023-02-25T13:50:54;95688.97;;;14.93;37.41
42771;BME280;28426;42.872;25.314;2023-02-25T13:53:58;95694.97;;;15.00;37.92
42771;BME280;28426;42.872;25.314;2023-02-25T13:56:55;95696.59;;;15.01;37.29
42771;BME280;28426;42.872;25.314;2023-02-25T13:59:53;95697.47;;;15.07;37.66
42771;BME280;28426;42.872;25.314;2023-02-25T14:02:42;95700.66;;;15.04;37.69